sensor_id;sensor_type;location;lat;lon;timestamp;temperature;humidity
46336;DHT22;31365;48.858;8.530;2022-07-29T00:01:41;21.60;99.90
46336;DHT22;31365;48.858;8.530;2022-07-29T00:04:11;21.60;99.90
46336;DHT22;31365;48.858;8.530;2022-07-29T00:06:41;21.60;99.90
46336;DHT22;31365;48.858;8.530;2022-07-29T00:09:09;21.50;99.90
46336;DHT22;31365;48.858;8.530;2022-07-29T00:11:38;21.50;99.90
46336;DHT22;31365;48.858;8.530;2022-07-29T00:14:06;21.60;99.90
46336;DHT22;31365;48.858;8.530;2022-07-29T00:16:34;21.50;99.90
46336;DHT22;31365;48.858;8.530;2022-07-29T00:19:03;21.60;99.90
46336;DHT22;31365;48.858;8.530;2022-07-29T00:21:35;21.50;99.90
46336;DHT22;31365;48.858;8.530;2022-07-29T00:24:03;21.50;99.90
46336;DHT22;31365;48.858;8.530;2022-07-29T00:26:32;21.50;99.90
46336;DHT22;31365;48.858;8.530;2022-07-29T00:29:01;21.50;99.90
46336;DHT22;31365;48.858;8.530;2022-07-29T00:31:51;21.50;99.90
46336;DHT22;31365;48.858;8.530;2022-07-29T00:34:20;21.60;99.90
46336;DHT22;31365;48.858;8.530;2022-07-29T00:37:07;21.60;99.90
46336;DHT22;31365;48.858;8.530;2022-07-29T00:39:35;21.60;99.90
46336;DHT22;31365;48.858;8.530;2022-07-29T00:42:04;21.60;99.90
46336;DHT22;31365;48.858;8.530;2022-07-29T00:44:36;21.60;99.90
46336;DHT22;31365;48.858;8.530;2022-07-29T00:47:06;21.70;99.90
46336;DHT22;31365;48.858;8.530;2022-07-29T00:49:35;21.60;99.90
46336;DHT22;31365;48.858;8.530;2022-07-29T00:52:05;21.60;99.90
46336;DHT22;31365;48.858;8.530;2022-07-29T00:54:36;21.60;99.90
46336;DHT22;31365;48.858;8.530;2022-07-29T00:57:10;21.60;99.90
46336;DHT22;31365;48.858;8.530;2022-07-29T00:59:41;21.60;99.90
46336;DHT22;31365;48.858;8.530;2022-07-29T01:02:09;21.60;99.90
46336;DHT22;31365;48.858;8.530;2022-07-29T01:04:38;21.60;99.90
46336;DHT22;31365;48.858;8.530;2022-07-29T01:07:08;21.50;99.90
46336;DHT22;31365;48.858;8.530;2022-07-29T01:09:37;21.50;99.90
46336;DHT22;31365;48.858;8.530;2022-07-29T01:12:15;21.50;99.90
46336;DHT22;31365;48.858;8.530;2022-07-29T01:14:46;21.50;99.90
46336;DHT22;31365;48.858;8.530;2022-07-29T01:17:21;21.60;99.90
46336;DHT22;31365;48.858;8.530;2022-07-29T01:19:58;21.40;99.90
46336;DHT22;31365;48.858;8.530;2022-07-29T01:23:01;21.40;99.90
46336;DHT22;31365;48.858;8.530;2022-07-29T01:26:00;21.40;99.90
46336;DHT22;31365;48.858;8.530;2022-07-29T01:28:58;21.30;99.90
46336;DHT22;31365;48.858;8.530;2022-07-29T01:31:42;21.30;99.90
46336;DHT22;31365;48.858;8.530;2022-07-29T01:34:35;21.30;99.90
46336;DHT22;31365;48.858;8.530;2022-07-29T01:37:19;21.20;99.90
46336;DHT22;31365;48.858;8.530;2022-07-29T01:39:53;21.20;99.90
46336;DHT22;31365;48.858;8.530;2022-07-29T01:42:29;21.20;99.90
46336;DHT22;31365;48.858;8.530;2022-07-29T01:45:07;21.20;99.90
46336;DHT22;31365;48.858;8.530;2022-07-29T01:47:41;21.20;99.90
46336;DHT22;31365;48.858;8.530;2022-07-29T01:50:15;21.20;99.90
46336;DHT22;31365;48.858;8.530;2022-07-29T01:52:52;21.30;99.90
46336;DHT22;31365;48.858;8.530;2022-07-29T01:55:26;21.20;99.90
46336;DHT22;31365;48.858;8.530;2022-07-29T01:57:58;21.20;99.90
46336;DHT22;31365;48.858;8.530;2022-07-29T02:00:31;21.20;99.90
46336;DHT22;31365;48.858;8.530;2022-07-29T02:03:04;21.20;99.90
46336;DHT22;31365;48.858;8.530;2022-07-29T02:05:38;21.20;99.90
46336;DHT22;31365;48.858;8.530;2022-07-29T02:08:10;21.20;99.90
46336;DHT22;31365;48.858;8.530;2022-07-29T02:10:42;21.20;99.90
46336;DHT22;31365;48.858;8.530;2022-07-29T02:13:13;21.20;99.90
46336;DHT22;31365;48.858;8.530;2022-07-29T02:15:46;21.20;99.90
46336;DHT22;31365;48.858;8.530;2022-07-29T02:18:18;21.30;99.90
46336;DHT22;31365;48.858;8.530;2022-07-29T02:20:53;21.30;99.90
46336;DHT22;31365;48.858;8.530;2022-07-29T02:23:24;21.30;99.90
46336;DHT22;31365;48.858;8.530;2022-07-29T02:25:56;21.30;99.90
46336;DHT22;31365;48.858;8.530;2022-07-29T02:28:28;21.30;99.90
46336;DHT22;31365;48.858;8.530;2022-07-29T02:31:02;21.30;99.90
46336;DHT22;31365;48.858;8.530;2022-07-29T02:33:32;21.40;99.90
46336;DHT22;31365;48.858;8.530;2022-07-29T02:36:03;21.30;99.90
46336;DHT22;31365;48.858;8.530;2022-07-29T02:38:32;21.40;99.90
46336;DHT22;31365;48.858;8.530;2022-07-29T02:41:20;21.40;99.90
46336;DHT22;31365;48.858;8.530;2022-07-29T02:43:55;21.40;99.90
46336;DHT22;31365;48.858;8.530;2022-07-29T02:46:30;21.40;99.90
46336;DHT22;31365;48.858;8.530;2022-07-29T02:49:06;21.30;99.90
46336;DHT22;31365;48.858;8.530;2022-07-29T02:51:42;21.30;99.90
46336;DHT22;31365;48.858;8.530;2022-07-29T02:54:22;21.30;99.90
46336;DHT22;31365;48.858;8.530;2022-07-29T02:56:56;21.30;99.90
46336;DHT22;31365;48.858;8.530;2022-07-29T02:59:30;21.30;99.90
46336;DHT22;31365;48.858;8.530;2022-07-29T03:02:05;21.30;99.90
46336;DHT22;31365;48.858;8.530;2022-07-29T03:04:37;21.20;99.90
46336;DHT22;31365;48.858;8.530;2022-07-29T03:07:10;21.10;99.90
46336;DHT22;31365;48.858;8.530;2022-07-29T03:09:43;21.00;99.90
46336;DHT22;31365;48.858;8.530;2022-07-29T03:12:14;20.90;99.90
46336;DHT22;31365;48.858;8.530;2022-07-29T03:14:43;20.80;99.90
46336;DHT22;31365;48.858;8.530;2022-07-29T03:17:14;20.80;99.90
46336;DHT22;31365;48.858;8.530;2022-07-29T03:19:43;20.70;99.90
46336;DHT22;31365;48.858;8.530;2022-07-29T03:22:12;20.70;99.90
46336;DHT22;31365;48.858;8.530;2022-07-29T03:24:44;20.70;99.90
46336;DHT22;31365;48.858;8.530;2022-07-29T03:27:13;20.70;99.90
46336;DHT22;31365;48.858;8.530;2022-07-29T03:29:41;20.60;99.90
46336;DHT22;31365;48.858;8.530;2022-07-29T03:32:17;20.50;99.90
46336;DHT22;31365;48.858;8.530;2022-07-29T03:34:51;20.40;99.90
46336;DHT22;31365;48.858;8.530;2022-07-29T03:37:19;20.40;99.90
46336;DHT22;31365;48.858;8.530;2022-07-29T03:39:49;20.30;99.90
46336;DHT22;31365;48.858;8.530;2022-07-29T03:42:21;20.30;99.90
46336;DHT22;31365;48.858;8.530;2022-07-29T03:45:02;20.20;99.90
46336;DHT22;31365;48.858;8.530;2022-07-29T03:47:38;20.20;99.90
46336;DHT22;31365;48.858;8.530;2022-07-29T03:50:20;20.20;99.90
46336;DHT22;31365;48.858;8.530;2022-07-29T03:52:50;20.20;99.90
46336;DHT22;31365;48.858;8.530;2022-07-29T03:55:19;20.10;99.90
46336;DHT22;31365;48.858;8.530;2022-07-29T03:57:48;20.10;99.90
46336;DHT22;31365;48.858;8.530;2022-07-29T04:00:17;20.10;99.90
46336;DHT22;31365;48.858;8.530;2022-07-29T04:02:47;20.00;99.90
46336;DHT22;31365;48.858;8.530;2022-07-29T04:05:17;20.00;99.90
46336;DHT22;31365;48.858;8.530;2022-07-29T04:07:47;20.00;99.90
46336;DHT22;31365;48.858;8.530;2022-07-29T04:10:16;20.00;99.90
46336;DHT22;31365;48.858;8.530;2022-07-29T04:12:57;19.90;99.90
46336;DHT22;31365;48.858;8.530;2022-07-29T04:15:26;19.90;99.90
46336;DHT22;31365;48.858;8.530;2022-07-29T04:17:59;19.90;99.90
46336;DHT22;31365;48.858;8.530;2022-07-29T04:20:27;19.90;99.90
46336;DHT22;31365;48.858;8.530;2022-07-29T04:22:55;19.90;99.90
46336;DHT22;31365;48.858;8.530;2022-07-29T04:25:23;19.90;99.90
46336;DHT22;31365;48.858;8.530;2022-07-29T04:27:52;19.90;99.90
46336;DHT22;31365;48.858;8.530;2022-07-29T04:30:30;19.90;99.90
46336;DHT22;31365;48.858;8.530;2022-07-29T04:33:03;19.80;99.90
46336;DHT22;31365;48.858;8.530;2022-07-29T04:35:34;19.80;99.90
46336;DHT22;31365;48.858;8.530;2022-07-29T04:38:16;19.90;99.90
46336;DHT22;31365;48.858;8.530;2022-07-29T04:40:44;20.00;99.90
46336;DHT22;31365;48.858;8.530;2022-07-29T04:43:16;19.90;99.90
46336;DHT22;31365;48.858;8.530;2022-07-29T04:45:48;20.00;99.90
46336;DHT22;31365;48.858;8.530;2022-07-29T04:48:19;20.00;99.90
46336;DHT22;31365;48.858;8.530;2022-07-29T04:50:54;20.00;99.90
46336;DHT22;31365;48.858;8.530;2022-07-29T04:53:25;20.10;99.90
46336;DHT22;31365;48.858;8.530;2022-07-29T04:55:53;20.10;99.90
46336;DHT22;31365;48.858;8.530;2022-07-29T04:58:22;20.10;99.90
46336;DHT22;31365;48.858;8.530;2022-07-29T05:00:51;20.20;99.90
46336;DHT22;31365;48.858;8.530;2022-07-29T05:03:21;20.10;99.90
46336;DHT22;31365;48.858;8.530;2022-07-29T05:05:49;20.10;99.90
46336;DHT22;31365;48.858;8.530;2022-07-29T05:08:17;20.10;99.90
46336;DHT22;31365;48.858;8.530;2022-07-29T05:10:46;20.10;99.90
46336;DHT22;31365;48.858;8.530;2022-07-29T05:13:14;20.10;99.90
46336;DHT22;31365;48.858;8.530;2022-07-29T05:15:42;20.10;99.90
46336;DHT22;31365;48.858;8.530;2022-07-29T05:18:11;20.10;99.90
46336;DHT22;31365;48.858;8.530;2022-07-29T05:20:41;20.10;99.90
46336;DHT22;31365;48.858;8.530;2022-07-29T05:23:10;20.20;99.90
46336;DHT22;31365;48.858;8.530;2022-07-29T05:25:39;20.30;99.90
46336;DHT22;31365;48.858;8.530;2022-07-29T05:28:10;20.30;99.90
46336;DHT22;31365;48.858;8.530;2022-07-29T05:30:39;20.40;99.90
46336;DHT22;31365;48.858;8.530;2022-07-29T05:33:07;20.50;99.90
46336;DHT22;31365;48.858;8.530;2022-07-29T05:35:57;20.60;99.90
46336;DHT22;31365;48.858;8.530;2022-07-29T05:38:27;20.60;99.90
46336;DHT22;31365;48.858;8.530;2022-07-29T05:40:56;20.70;99.90
46336;DHT22;31365;48.858;8.530;2022-07-29T05:43:26;20.70;99.90
46336;DHT22;31365;48.858;8.530;2022-07-29T05:45:55;20.80;99.90
46336;DHT22;31365;48.858;8.530;2022-07-29T05:48:24;20.90;99.90
46336;DHT22;31365;48.858;8.530;2022-07-29T05:50:52;21.00;99.90
46336;DHT22;31365;48.858;8.530;2022-07-29T05:53:23;21.20;99.90
46336;DHT22;31365;48.858;8.530;2022-07-29T05:55:51;21.30;99.90
46336;DHT22;31365;48.858;8.530;2022-07-29T05:58:20;21.40;99.90
46336;DHT22;31365;48.858;8.530;2022-07-29T06:00:48;21.40;99.90
46336;DHT22;31365;48.858;8.530;2022-07-29T06:03:16;21.60;99.90
46336;DHT22;31365;48.858;8.530;2022-07-29T06:05:45;21.60;99.90
46336;DHT22;31365;48.858;8.530;2022-07-29T06:08:13;21.60;99.90
46336;DHT22;31365;48.858;8.530;2022-07-29T06:10:43;21.70;99.90
46336;DHT22;31365;48.858;8.530;2022-07-29T06:13:12;21.80;99.90
46336;DHT22;31365;48.858;8.530;2022-07-29T06:15:42;21.90;99.90
46336;DHT22;31365;48.858;8.530;2022-07-29T06:18:12;22.00;99.90
46336;DHT22;31365;48.858;8.530;2022-07-29T06:20:41;22.00;99.90
46336;DHT22;31365;48.858;8.530;2022-07-29T06:23:09;22.10;99.90
46336;DHT22;31365;48.858;8.530;2022-07-29T06:25:39;22.10;99.90
46336;DHT22;31365;48.858;8.530;2022-07-29T06:28:10;22.10;99.90
46336;DHT22;31365;48.858;8.530;2022-07-29T06:30:39;22.10;99.90
46336;DHT22;31365;48.858;8.530;2022-07-29T06:33:07;22.20;99.90
46336;DHT22;31365;48.858;8.530;2022-07-29T06:35:36;22.30;99.90
46336;DHT22;31365;48.858;8.530;2022-07-29T06:38:08;22.20;99.90
46336;DHT22;31365;48.858;8.530;2022-07-29T06:40:57;22.20;99.90
46336;DHT22;31365;48.858;8.530;2022-07-29T06:43:33;22.30;99.90
46336;DHT22;31365;48.858;8.530;2022-07-29T06:46:19;22.30;99.90
46336;DHT22;31365;48.858;8.530;2022-07-29T06:48:50;22.40;99.90
46336;DHT22;31365;48.858;8.530;2022-07-29T06:51:20;22.40;99.90
46336;DHT22;31365;48.858;8.530;2022-07-29T06:53:50;22.60;99.90
46336;DHT22;31365;48.858;8.530;2022-07-29T06:56:29;22.50;99.90
46336;DHT22;31365;48.858;8.530;2022-07-29T06:59:06;22.80;99.90
46336;DHT22;31365;48.858;8.530;2022-07-29T07:01:36;22.90;99.90
46336;DHT22;31365;48.858;8.530;2022-07-29T07:04:05;23.00;99.90
46336;DHT22;31365;48.858;8.530;2022-07-29T07:06:35;23.10;99.90
46336;DHT22;31365;48.858;8.530;2022-07-29T07:09:04;23.20;99.90
46336;DHT22;31365;48.858;8.530;2022-07-29T07:11:33;23.10;99.90
46336;DHT22;31365;48.858;8.530;2022-07-29T07:14:01;23.10;99.90
46336;DHT22;31365;48.858;8.530;2022-07-29T07:16:31;23.20;99.90
46336;DHT22;31365;48.858;8.530;2022-07-29T07:19:00;23.20;99.90
46336;DHT22;31365;48.858;8.530;2022-07-29T07:21:29;23.30;99.90
46336;DHT22;31365;48.858;8.530;2022-07-29T07:23:58;23.40;99.90
46336;DHT22;31365;48.858;8.530;2022-07-29T07:26:28;23.40;99.90
46336;DHT22;31365;48.858;8.530;2022-07-29T07:28:57;23.60;99.90
46336;DHT22;31365;48.858;8.530;2022-07-29T07:31:27;23.70;99.90
46336;DHT22;31365;48.858;8.530;2022-07-29T07:33:57;23.80;99.90
46336;DHT22;31365;48.858;8.530;2022-07-29T07:36:26;23.90;99.90
46336;DHT22;31365;48.858;8.530;2022-07-29T07:38:54;23.90;99.90
46336;DHT22;31365;48.858;8.530;2022-07-29T07:41:23;24.00;99.90
46336;DHT22;31365;48.858;8.530;2022-07-29T07:43:51;24.00;99.90
46336;DHT22;31365;48.858;8.530;2022-07-29T07:46:20;24.00;99.90
46336;DHT22;31365;48.858;8.530;2022-07-29T07:48:48;24.10;99.90
46336;DHT22;31365;48.858;8.530;2022-07-29T07:51:20;24.20;99.90
46336;DHT22;31365;48.858;8.530;2022-07-29T07:53:48;24.30;99.90
46336;DHT22;31365;48.858;8.530;2022-07-29T07:56:17;24.10;99.90
46336;DHT22;31365;48.858;8.530;2022-07-29T07:58:45;24.20;99.90
46336;DHT22;31365;48.858;8.530;2022-07-29T08:01:13;24.20;99.90
46336;DHT22;31365;48.858;8.530;2022-07-29T08:03:45;24.30;99.90
46336;DHT22;31365;48.858;8.530;2022-07-29T08:06:14;24.40;99.90
46336;DHT22;31365;48.858;8.530;2022-07-29T08:08:43;24.40;99.90
46336;DHT22;31365;48.858;8.530;2022-07-29T08:11:11;24.40;99.90
46336;DHT22;31365;48.858;8.530;2022-07-29T08:13:39;24.20;99.90
46336;DHT22;31365;48.858;8.530;2022-07-29T08:16:08;24.50;99.90
46336;DHT22;31365;48.858;8.530;2022-07-29T08:18:40;24.50;99.90
46336;DHT22;31365;48.858;8.530;2022-07-29T08:21:10;24.40;99.90
46336;DHT22;31365;48.858;8.530;2022-07-29T08:23:45;24.40;99.90
46336;DHT22;31365;48.858;8.530;2022-07-29T08:26:27;24.50;99.90
46336;DHT22;31365;48.858;8.530;2022-07-29T08:28:56;24.60;99.90
46336;DHT22;31365;48.858;8.530;2022-07-29T08:31:24;24.70;99.90
46336;DHT22;31365;48.858;8.530;2022-07-29T08:33:52;24.80;99.90
46336;DHT22;31365;48.858;8.530;2022-07-29T08:36:24;24.70;99.90
46336;DHT22;31365;48.858;8.530;2022-07-29T08:38:54;24.80;99.90
46336;DHT22;31365;48.858;8.530;2022-07-29T08:41:23;25.00;99.90
46336;DHT22;31365;48.858;8.530;2022-07-29T08:43:52;25.20;99.90
46336;DHT22;31365;48.858;8.530;2022-07-29T08:46:22;25.20;99.60
46336;DHT22;31365;48.858;8.530;2022-07-29T08:48:50;25.10;99.90
46336;DHT22;31365;48.858;8.530;2022-07-29T08:51:20;25.10;99.80
46336;DHT22;31365;48.858;8.530;2022-07-29T08:53:49;25.00;99.90
46336;DHT22;31365;48.858;8.530;2022-07-29T08:56:21;25.00;99.80
46336;DHT22;31365;48.858;8.530;2022-07-29T08:58:50;25.00;99.60
46336;DHT22;31365;48.858;8.530;2022-07-29T09:01:22;24.90;99.80
46336;DHT22;31365;48.858;8.530;2022-07-29T09:04:04;24.90;99.70
46336;DHT22;31365;48.858;8.530;2022-07-29T09:06:43;25.00;99.60
46336;DHT22;31365;48.858;8.530;2022-07-29T09:09:14;25.20;99.10
46336;DHT22;31365;48.858;8.530;2022-07-29T09:11:44;25.30;98.60
46336;DHT22;31365;48.858;8.530;2022-07-29T09:14:14;25.40;97.80
46336;DHT22;31365;48.858;8.530;2022-07-29T09:16:50;25.40;97.90
46336;DHT22;31365;48.858;8.530;2022-07-29T09:19:25;25.30;97.40
46336;DHT22;31365;48.858;8.530;2022-07-29T09:21:57;25.20;96.50
46336;DHT22;31365;48.858;8.530;2022-07-29T09:24:40;25.30;96.70
46336;DHT22;31365;48.858;8.530;2022-07-29T09:27:19;25.40;96.70
46336;DHT22;31365;48.858;8.530;2022-07-29T09:29:59;25.50;96.20
46336;DHT22;31365;48.858;8.530;2022-07-29T09:32:29;25.40;96.20
46336;DHT22;31365;48.858;8.530;2022-07-29T09:35:13;25.30;96.00
46336;DHT22;31365;48.858;8.530;2022-07-29T09:37:43;25.30;96.00
46336;DHT22;31365;48.858;8.530;2022-07-29T09:40:14;25.20;96.00
46336;DHT22;31365;48.858;8.530;2022-07-29T09:42:45;25.30;96.10
46336;DHT22;31365;48.858;8.530;2022-07-29T09:45:26;25.30;95.90
46336;DHT22;31365;48.858;8.530;2022-07-29T09:47:56;25.40;95.90
46336;DHT22;31365;48.858;8.530;2022-07-29T09:50:37;25.50;95.60
46336;DHT22;31365;48.858;8.530;2022-07-29T09:53:06;25.60;95.40
46336;DHT22;31365;48.858;8.530;2022-07-29T09:55:46;25.90;95.20
46336;DHT22;31365;48.858;8.530;2022-07-29T09:58:19;26.00;95.00
46336;DHT22;31365;48.858;8.530;2022-07-29T10:00:51;26.10;94.80
46336;DHT22;31365;48.858;8.530;2022-07-29T10:03:22;26.20;94.40
46336;DHT22;31365;48.858;8.530;2022-07-29T10:06:06;26.30;94.10
46336;DHT22;31365;48.858;8.530;2022-07-29T10:08:35;26.50;93.80
46336;DHT22;31365;48.858;8.530;2022-07-29T10:11:11;26.70;93.40
46336;DHT22;31365;48.858;8.530;2022-07-29T10:13:42;26.80;92.90
46336;DHT22;31365;48.858;8.530;2022-07-29T10:16:12;26.80;92.80
46336;DHT22;31365;48.858;8.530;2022-07-29T10:18:43;26.90;92.90
46336;DHT22;31365;48.858;8.530;2022-07-29T10:21:14;27.00;92.50
46336;DHT22;31365;48.858;8.530;2022-07-29T10:24:02;26.90;93.00
46336;DHT22;31365;48.858;8.530;2022-07-29T10:26:41;26.70;92.40
46336;DHT22;31365;48.858;8.530;2022-07-29T10:29:12;26.50;92.90
46336;DHT22;31365;48.858;8.530;2022-07-29T10:31:52;26.40;93.00
46336;DHT22;31365;48.858;8.530;2022-07-29T10:34:49;26.30;92.80
46336;DHT22;31365;48.858;8.530;2022-07-29T10:37:31;26.30;92.40
46336;DHT22;31365;48.858;8.530;2022-07-29T10:40:18;26.30;92.30
46336;DHT22;31365;48.858;8.530;2022-07-29T10:43:18;26.50;92.70
46336;DHT22;31365;48.858;8.530;2022-07-29T10:45:56;26.70;92.60
46336;DHT22;31365;48.858;8.530;2022-07-29T10:48:26;26.80;92.50
46336;DHT22;31365;48.858;8.530;2022-07-29T10:50:57;27.10;92.00
46336;DHT22;31365;48.858;8.530;2022-07-29T10:53:47;27.20;91.60
46336;DHT22;31365;48.858;8.530;2022-07-29T10:56:24;27.70;91.40
46336;DHT22;31365;48.858;8.530;2022-07-29T10:59:26;27.80;90.90
46336;DHT22;31365;48.858;8.530;2022-07-29T11:05:13;27.50;90.80
46336;DHT22;31365;48.858;8.530;2022-07-29T11:14:17;27.40;91.50
46336;DHT22;31365;48.858;8.530;2022-07-29T11:17:04;27.80;91.20
46336;DHT22;31365;48.858;8.530;2022-07-29T11:19:34;28.10;90.00
46336;DHT22;31365;48.858;8.530;2022-07-29T11:22:08;28.30;90.00
46336;DHT22;31365;48.858;8.530;2022-07-29T11:25:12;28.70;89.30
46336;DHT22;31365;48.858;8.530;2022-07-29T11:27:43;29.20;88.50
46336;DHT22;31365;48.858;8.530;2022-07-29T11:30:13;29.60;87.50
46336;DHT22;31365;48.858;8.530;2022-07-29T11:32:45;30.20;84.90
46336;DHT22;31365;48.858;8.530;2022-07-29T11:35:17;30.50;83.60
46336;DHT22;31365;48.858;8.530;2022-07-29T11:38:23;30.70;82.80
46336;DHT22;31365;48.858;8.530;2022-07-29T11:41:23;30.90;81.50
46336;DHT22;31365;48.858;8.530;2022-07-29T11:44:12;31.20;79.60
46336;DHT22;31365;48.858;8.530;2022-07-29T11:46:48;31.80;78.60
46336;DHT22;31365;48.858;8.530;2022-07-29T11:49:22;32.20;77.40
46336;DHT22;31365;48.858;8.530;2022-07-29T11:51:58;32.20;77.40
46336;DHT22;31365;48.858;8.530;2022-07-29T11:54:31;32.70;77.00
46336;DHT22;31365;48.858;8.530;2022-07-29T11:57:21;33.40;74.90
46336;DHT22;31365;48.858;8.530;2022-07-29T12:00:05;33.40;72.00
46336;DHT22;31365;48.858;8.530;2022-07-29T12:02:40;33.50;73.10
46336;DHT22;31365;48.858;8.530;2022-07-29T12:05:16;33.30;73.00
46336;DHT22;31365;48.858;8.530;2022-07-29T12:08:11;33.00;73.40
46336;DHT22;31365;48.858;8.530;2022-07-29T12:10:42;32.70;73.60
46336;DHT22;31365;48.858;8.530;2022-07-29T12:13:14;32.40;73.00
46336;DHT22;31365;48.858;8.530;2022-07-29T12:15:51;31.90;73.30
46336;DHT22;31365;48.858;8.530;2022-07-29T12:18:21;31.60;73.50
46336;DHT22;31365;48.858;8.530;2022-07-29T12:20:58;31.20;74.00
46336;DHT22;31365;48.858;8.530;2022-07-29T12:23:31;31.10;75.40
46336;DHT22;31365;48.858;8.530;2022-07-29T12:26:03;30.50;76.30
46336;DHT22;31365;48.858;8.530;2022-07-29T12:28:49;30.40;77.10
46336;DHT22;31365;48.858;8.530;2022-07-29T12:31:17;30.20;76.10
46336;DHT22;31365;48.858;8.530;2022-07-29T12:34:05;30.10;75.90
46336;DHT22;31365;48.858;8.530;2022-07-29T12:36:36;29.70;76.10
46336;DHT22;31365;48.858;8.530;2022-07-29T12:39:05;29.50;77.30
46336;DHT22;31365;48.858;8.530;2022-07-29T12:41:36;29.20;76.50
46336;DHT22;31365;48.858;8.530;2022-07-29T12:44:05;29.10;77.50
46336;DHT22;31365;48.858;8.530;2022-07-29T12:46:33;29.30;77.30
46336;DHT22;31365;48.858;8.530;2022-07-29T12:49:02;29.20;76.60
46336;DHT22;31365;48.858;8.530;2022-07-29T12:51:33;29.20;76.40
46336;DHT22;31365;48.858;8.530;2022-07-29T12:54:07;29.10;76.00
46336;DHT22;31365;48.858;8.530;2022-07-29T12:56:37;29.00;76.50
46336;DHT22;31365;48.858;8.530;2022-07-29T12:59:14;29.00;76.60
46336;DHT22;31365;48.858;8.530;2022-07-29T13:01:44;29.00;76.10
46336;DHT22;31365;48.858;8.530;2022-07-29T13:04:24;29.20;76.20
46336;DHT22;31365;48.858;8.530;2022-07-29T13:07:02;29.30;75.90
46336;DHT22;31365;48.858;8.530;2022-07-29T13:09:39;29.30;75.40
46336;DHT22;31365;48.858;8.530;2022-07-29T13:12:10;29.30;75.50
46336;DHT22;31365;48.858;8.530;2022-07-29T13:14:41;29.10;75.40
46336;DHT22;31365;48.858;8.530;2022-07-29T13:17:12;29.00;76.20
46336;DHT22;31365;48.858;8.530;2022-07-29T13:19:44;29.30;75.90
46336;DHT22;31365;48.858;8.530;2022-07-29T13:22:14;29.00;75.00
46336;DHT22;31365;48.858;8.530;2022-07-29T13:24:50;28.90;75.80
46336;DHT22;31365;48.858;8.530;2022-07-29T13:27:21;29.00;75.70
46336;DHT22;31365;48.858;8.530;2022-07-29T13:29:51;29.20;75.70
46336;DHT22;31365;48.858;8.530;2022-07-29T13:32:22;29.20;74.00
46336;DHT22;31365;48.858;8.530;2022-07-29T13:34:54;29.20;75.40
46336;DHT22;31365;48.858;8.530;2022-07-29T13:37:23;29.50;73.90
46336;DHT22;31365;48.858;8.530;2022-07-29T13:39:54;29.50;72.20
46336;DHT22;31365;48.858;8.530;2022-07-29T13:42:23;29.50;72.20
46336;DHT22;31365;48.858;8.530;2022-07-29T13:44:51;29.60;72.20
46336;DHT22;31365;48.858;8.530;2022-07-29T13:47:20;29.60;72.10
46336;DHT22;31365;48.858;8.530;2022-07-29T13:49:59;30.00;72.30
46336;DHT22;31365;48.858;8.530;2022-07-29T13:52:27;30.20;71.20
46336;DHT22;31365;48.858;8.530;2022-07-29T13:54:57;30.40;71.70
46336;DHT22;31365;48.858;8.530;2022-07-29T13:57:27;30.40;71.40
46336;DHT22;31365;48.858;8.530;2022-07-29T13:59:56;30.10;71.70
46336;DHT22;31365;48.858;8.530;2022-07-29T14:02:25;29.90;71.80
46336;DHT22;31365;48.858;8.530;2022-07-29T14:04:54;29.90;71.80
46336;DHT22;31365;48.858;8.530;2022-07-29T14:07:22;29.90;72.00
46336;DHT22;31365;48.858;8.530;2022-07-29T14:09:51;30.00;72.40
46336;DHT22;31365;48.858;8.530;2022-07-29T14:12:20;29.80;71.90
46336;DHT22;31365;48.858;8.530;2022-07-29T14:14:49;29.70;72.70
46336;DHT22;31365;48.858;8.530;2022-07-29T14:17:17;29.90;72.40
46336;DHT22;31365;48.858;8.530;2022-07-29T14:19:46;29.90;72.10
46336;DHT22;31365;48.858;8.530;2022-07-29T14:22:14;29.70;72.30
46336;DHT22;31365;48.858;8.530;2022-07-29T14:24:47;29.70;72.20
46336;DHT22;31365;48.858;8.530;2022-07-29T14:27:17;30.00;72.50
46336;DHT22;31365;48.858;8.530;2022-07-29T14:30:06;30.20;71.10
46336;DHT22;31365;48.858;8.530;2022-07-29T14:32:35;30.10;71.40
46336;DHT22;31365;48.858;8.530;2022-07-29T14:35:05;30.10;71.50
46336;DHT22;31365;48.858;8.530;2022-07-29T14:37:34;30.00;71.40
46336;DHT22;31365;48.858;8.530;2022-07-29T14:40:07;30.00;71.60
46336;DHT22;31365;48.858;8.530;2022-07-29T14:42:37;30.30;71.20
46336;DHT22;31365;48.858;8.530;2022-07-29T14:45:08;30.40;70.90
46336;DHT22;31365;48.858;8.530;2022-07-29T14:47:38;30.40;70.80
46336;DHT22;31365;48.858;8.530;2022-07-29T14:50:07;30.10;70.70
46336;DHT22;31365;48.858;8.530;2022-07-29T14:52:36;30.10;71.30
46336;DHT22;31365;48.858;8.530;2022-07-29T14:55:05;30.20;71.00
46336;DHT22;31365;48.858;8.530;2022-07-29T14:57:45;30.20;70.50
46336;DHT22;31365;48.858;8.530;2022-07-29T15:04:47;30.30;70.30
46336;DHT22;31365;48.858;8.530;2022-07-29T15:07:16;29.90;69.70
46336;DHT22;31365;48.858;8.530;2022-07-29T15:09:44;29.70;70.90
46336;DHT22;31365;48.858;8.530;2022-07-29T15:12:16;29.70;71.70
46336;DHT22;31365;48.858;8.530;2022-07-29T15:14:44;29.90;71.20
46336;DHT22;31365;48.858;8.530;2022-07-29T15:17:12;30.20;70.70
46336;DHT22;31365;48.858;8.530;2022-07-29T15:19:40;30.10;70.60
46336;DHT22;31365;48.858;8.530;2022-07-29T15:22:12;29.90;70.50
46336;DHT22;31365;48.858;8.530;2022-07-29T15:24:40;29.70;70.60
46336;DHT22;31365;48.858;8.530;2022-07-29T15:27:09;29.70;70.90
46336;DHT22;31365;48.858;8.530;2022-07-29T15:29:41;29.40;70.30
46336;DHT22;31365;48.858;8.530;2022-07-29T15:32:10;29.30;71.40
46336;DHT22;31365;48.858;8.530;2022-07-29T15:34:38;29.10;71.10
46336;DHT22;31365;48.858;8.530;2022-07-29T15:37:06;29.00;71.00
46336;DHT22;31365;48.858;8.530;2022-07-29T15:39:36;28.80;71.00
46336;DHT22;31365;48.858;8.530;2022-07-29T15:42:05;28.80;71.50
46336;DHT22;31365;48.858;8.530;2022-07-29T15:44:33;29.00;71.80
46336;DHT22;31365;48.858;8.530;2022-07-29T15:47:02;29.00;71.70
46336;DHT22;31365;48.858;8.530;2022-07-29T15:49:31;28.90;71.60
46336;DHT22;31365;48.858;8.530;2022-07-29T15:52:17;29.00;71.70
46336;DHT22;31365;48.858;8.530;2022-07-29T15:54:54;29.00;71.50
46336;DHT22;31365;48.858;8.530;2022-07-29T15:57:24;29.10;71.50
46336;DHT22;31365;48.858;8.530;2022-07-29T15:59:52;29.00;71.50
46336;DHT22;31365;48.858;8.530;2022-07-29T16:02:20;29.00;72.10
46336;DHT22;31365;48.858;8.530;2022-07-29T16:04:48;29.00;73.00
46336;DHT22;31365;48.858;8.530;2022-07-29T16:07:17;28.90;73.20
46336;DHT22;31365;48.858;8.530;2022-07-29T16:09:45;28.80;71.50
46336;DHT22;31365;48.858;8.530;2022-07-29T16:12:20;28.50;71.20
46336;DHT22;31365;48.858;8.530;2022-07-29T16:14:48;28.60;71.40
46336;DHT22;31365;48.858;8.530;2022-07-29T16:17:18;28.60;71.40
46336;DHT22;31365;48.858;8.530;2022-07-29T16:19:49;28.60;72.20